Time;durP1;ratioP1;P1;durP2;ratioP2;P2;SDS_P1;SDS_P2;PMS_P1;PMS_P2;Temp;Humidity;BMP_temperature;BMP_pressure;BME280_temperature;BME280_humidity;BME280_pressure;Samples;Min_cycle;Max_cycle;Signal;HPM_P1;HPM_P2
2020/12/07 00:00:23;;;;;;;130.15;45.13;;;;;;;;;;5107662;28;20054;-87
2020/12/07 00:02:51;;;;;;;132.35;46.03;;;;;;;;;;5117390;28;20510;-87
2020/12/07 00:05:24;;;;;;;131.57;47.33;;;;;;;;;;5095310;28;20087;-87
2020/12/07 00:08:00;;;;;;;121.38;44.70;;;;;;;;;;5094741;28;20052;-87
2020/12/07 00:10:31;;;;;;;121.05;46.35;;;;;;;;;;5094009;28;20042;-87
2020/12/07 00:13:03;;;;;;;124.03;45.53;;;;;;;;;;5111890;28;20054;-87
2020/12/07 00:15:32;;;;;;;122.97;46.08;;;;;;;;;;5095714;28;20106;-87
2020/12/07 00:18:07;;;;;;;134.18;46.20;;;;;;;;;;5094728;28;20044;-87
2020/12/07 00:20:41;;;;;;;126.32;47.55;;;;;;;;;;5106723;28;20044;-87
2020/12/07 00:23:30;;;;;;;;;;;;;;;;;;;;;
2020/12/07 00:26:07;;;;;;;118.65;43.38;;;;;;;;;;5100698;28;20446;-87
2020/12/07 00:28:39;;;;;;;121.00;44.22;;;;;;;;;;5082909;28;20045;-86
2020/12/07 00:31:06;;;;;;;120.97;43.38;;;;;;;;;;5073590;28;20102;-87
2020/12/07 00:33:38;;;;;;;131.50;45.22;;;;;;;;;;5092054;28;20076;-86
2020/12/07 00:36:05;;;;;;;112.07;43.33;;;;;;;;;;5076237;28;20043;-86
2020/12/07 00:38:31;;;;;;;112.07;44.25;;;;;;;;;;5071322;28;20044;-87
2020/12/07 00:40:58;;;;;;;123.70;44.80;;;;;;;;;;5072796;28;20110;-86
2020/12/07 00:43:33;;;;;;;108.90;44.70;;;;;;;;;;5074705;28;20270;-86
2020/12/07 00:46:01;;;;;;;113.90;44.45;;;;;;;;;;5093885;28;20076;-87
2020/12/07 00:48:28;;;;;;;113.07;42.92;;;;;;;;;;5074958;28;20049;-86
2020/12/07 00:51:00;;;;;;;109.97;43.78;;;;;;;;;;5091998;28;20490;-86
2020/12/07 00:53:33;;;;;;;101.72;41.55;;;;;;;;;;5096113;28;20420;-87
2020/12/07 00:55:59;;;;;;;120.35;44.78;;;;;;;;;;5076173;28;20051;-86
2020/12/07 00:58:31;;;;;;;110.35;41.13;;;;;;;;;;5074207;28;20359;-86
2020/12/07 01:01:04;;;;;;;111.47;42.90;;;;;;;;;;5097722;28;20056;-86
2020/12/07 01:03:31;;;;;;;121.25;45.17;;;;;;;;;;5073609;28;20048;-86
2020/12/07 01:05:58;;;;;;;116.13;42.72;;;;;;;;;;5073728;28;20055;-86
2020/12/07 01:08:24;;;;;;;119.22;43.25;;;;;;;;;;5092532;28;20052;-86
2020/12/07 01:11:14;;;;;;;120.78;45.30;;;;;;;;;;5094973;28;20080;-86
2020/12/07 01:13:42;;;;;;;122.85;43.70;;;;;;;;;;5096364;28;20051;-85
2020/12/07 01:16:14;;;;;;;119.60;43.58;;;;;;;;;;5073171;28;20048;-86
2020/12/07 01:18:40;;;;;;;136.40;45.38;;;;;;;;;;5104272;28;20059;-85
2020/12/07 01:21:08;;;;;;;125.53;45.35;;;;;;;;;;5100206;28;20202;-86
2020/12/07 01:23:45;;;;;;;133.65;45.75;;;;;;;;;;5097619;28;20048;-86
2020/12/07 01:26:11;;;;;;;;;;;;;;;;;;5101954;28;20450;-85
2020/12/07 01:28:41;;;;;;;132.00;46.35;;;;;;;;;;5096617;28;19924;-85
2020/12/07 01:31:08;;;;;;;132.98;45.88;;;;;;;;;;5079434;28;20070;-85
2020/12/07 01:33:34;;;;;;;136.52;46.78;;;;;;;;;;5081332;28;20060;-85
2020/12/07 01:36:02;;;;;;;119.47;43.67;;;;;;;;;;5080755;28;20251;-86
2020/12/07 01:38:34;;;;;;;135.30;44.40;;;;;;;;;;5091604;28;20066;-86
2020/12/07 01:41:03;;;;;;;129.30;45.13;;;;;;;;;;5088691;28;20048;-85
2020/12/07 01:43:29;;;;;;;143.27;44.83;;;;;;;;;;5074092;28;20055;-85
2020/12/07 01:46:07;;;;;;;126.30;43.38;;;;;;;;;;5077527;28;20052;-85
2020/12/07 01:48:36;;;;;;;142.00;45.00;;;;;;;;;;5101865;28;20351;-85
2020/12/07 01:51:02;;;;;;;132.00;43.20;;;;;;;;;;5086932;28;20060;-85
2020/12/07 01:53:31;;;;;;;129.23;44.85;;;;;;;;;;5101411;28;20048;-85
2020/12/07 01:56:00;;;;;;;151.70;47.00;;;;;;;;;;5096969;28;20051;-85
2020/12/07 01:58:31;;;;;;;152.13;46.45;;;;;;;;;;5099396;28;20044;-85
2020/12/07 02:01:18;;;;;;;152.82;46.92;;;;;;;;;;5092395;28;20066;-85
2020/12/07 02:03:44;;;;;;;148.00;47.40;;;;;;;;;;5088835;28;20044;-85
2020/12/07 02:06:17;;;;;;;132.43;44.55;;;;;;;;;;5094127;28;20075;-85
2020/12/07 02:08:47;;;;;;;153.15;47.45;;;;;;;;;;5076226;28;20076;-85
2020/12/07 02:11:13;;;;;;;141.25;45.58;;;;;;;;;;5093115;28;20410;-84
2020/12/07 02:13:40;;;;;;;140.77;47.13;;;;;;;;;;5091145;28;20055;-84
2020/12/07 02:16:09;;;;;;;131.13;44.78;;;;;;;;;;5080974;28;20041;-83
2020/12/07 02:18:38;;;;;;;134.25;43.28;;;;;;;;;;5083044;28;20123;-83
2020/12/07 02:21:05;;;;;;;133.18;45.38;;;;;;;;;;5087714;28;20039;-84
2020/12/07 02:23:36;;;;;;;133.05;44.92;;;;;;;;;;5109568;28;20048;-88
2020/12/07 02:26:10;;;;;;;132.75;43.53;;;;;;;;;;5096237;28;20060;-84
2020/12/07 02:28:37;;;;;;;145.57;45.17;;;;;;;;;;5089329;28;20143;-84
2020/12/07 02:31:09;;;;;;;136.70;46.72;;;;;;;;;;5092424;28;20043;-84
2020/12/07 02:33:37;;;;;;;123.68;42.15;;;;;;;;;;5103871;27;20063;-85
2020/12/07 02:36:07;;;;;;;121.07;43.10;;;;;;;;;;5101660;28;20406;-84
2020/12/07 02:38:36;;;;;;;125.18;43.17;;;;;;;;;;5097572;28;20048;-85
2020/12/07 02:41:06;;;;;;;129.68;44.38;;;;;;;;;;5086945;28;20066;-85
2020/12/07 02:43:35;;;;;;;127.80;42.70;;;;;;;;;;5099301;28;20055;-87
2020/12/07 02:46:04;;;;;;;130.18;42.90;;;;;;;;;;5096471;28;20050;-87
2020/12/07 02:48:39;;;;;;;135.85;41.90;;;;;;;;;;5094654;28;20411;-88
2020/12/07 02:51:07;;;;;;;133.18;44.08;;;;;;;;;;5097231;28;20098;-87
2020/12/07 02:53:41;;;;;;;122.95;42.33;;;;;;;;;;5081366;28;20048;-87
2020/12/07 02:56:11;;;;;;;124.20;44.63;;;;;;;;;;5088692;28;20065;-87
2020/12/07 02:58:42;;;;;;;122.43;43.92;;;;;;;;;;5085486;28;20072;-87
2020/12/07 03:01:11;;;;;;;118.22;42.55;;;;;;;;;;5072004;28;20048;-87
2020/12/07 03:03:38;;;;;;;112.15;41.55;;;;;;;;;;5068916;28;20049;-87
2020/12/07 03:06:13;;;;;;;105.53;39.60;;;;;;;;;;5072658;28;20055;-87
2020/12/07 03:08:40;;;;;;;107.13;40.30;;;;;;;;;;5077043;28;20052;-87
2020/12/07 03:11:08;;;;;;;117.95;43.03;;;;;;;;;;5093625;28;20123;-88
2020/12/07 03:13:39;;;;;;;115.95;42.15;;;;;;;;;;5071889;28;20108;-88
2020/12/07 03:16:05;;;;;;;108.18;42.05;;;;;;;;;;5078252;28;20125;-88
2020/12/07 03:18:37;;;;;;;113.88;41.72;;;;;;;;;;5094633;28;20055;-88
2020/12/07 03:21:09;;;;;;;108.63;39.53;;;;;;;;;;5072917;28;20090;-88
2020/12/07 03:24:06;;;;;;;;;;;;;;;;;;;;;
2020/12/07 03:27:03;;;;;;;101.88;38.00;;;;;;;;;;5050741;28;20056;-88
2020/12/07 03:33:34;;;;;;;103.65;38.33;;;;;;;;;;4884670;29;20036;-88
2020/12/07 03:36:44;;;;;;;108.50;41.55;;;;;;;;;;4906635;29;20072;-88
2020/12/07 03:39:37;;;;;;;96.18;39.00;;;;;;;;;;4887491;29;20571;-88
2020/12/07 03:42:03;;;;;;;97.78;37.70;;;;;;;;;;4900635;29;20406;-89
2020/12/07 03:44:30;;;;;;;108.72;40.65;;;;;;;;;;4896010;29;20049;-89
2020/12/07 03:46:57;;;;;;;96.40;39.20;;;;;;;;;;4911862;28;20146;-89
2020/12/07 03:49:24;;;;;;;98.50;39.15;;;;;;;;;;4976759;28;20145;-87
2020/12/07 03:52:08;;;;;;;100.53;39.58;;;;;;;;;;4990687;28;20030;-88
2020/12/07 03:55:17;;;;;;;104.35;39.53;;;;;;;;;;4968835;28;20055;-87
2020/12/07 03:58:16;;;;;;;;;;;;;;;;;;;;;
2020/12/07 04:04:50;;;;;;;104.40;39.13;;;;;;;;;;4981477;28;20133;-87
2020/12/07 04:07:48;;;;;;;97.22;39.00;;;;;;;;;;4995548;28;20050;-87
2020/12/07 04:11:09;;;;;;;106.43;38.35;;;;;;;;;;5048048;28;20052;-87
2020/12/07 04:14:34;;;;;;;115.50;41.05;;;;;;;;;;5043191;28;20056;-88
2020/12/07 04:17:36;;;;;;;115.40;40.47;;;;;;;;;;4954106;28;20085;-88
2020/12/07 04:23:50;;;;;;;108.68;41.85;;;;;;;;;;5018245;28;20061;-89
2020/12/07 04:27:03;;;;;;;114.00;41.47;;;;;;;;;;4964599;29;20336;-89
2020/12/07 04:30:07;;;;;;;116.03;40.08;;;;;;;;;;4942611;29;20115;-90
2020/12/07 04:32:47;;;;;;;104.10;40.20;;;;;;;;;;4960027;29;20131;-90
2020/12/07 04:35:39;;;;;;;108.75;38.90;;;;;;;;;;4961634;28;20126;-89
2020/12/07 04:38:22;;;;;;;99.80;37.97;;;;;;;;;;4947764;29;20047;-88
2020/12/07 04:41:41;;;;;;;104.90;38.65;;;;;;;;;;4936249;29;20047;-90
2020/12/07 04:48:47;;;;;;;;;;;;;;;;;;;;;
2020/12/07 04:55:14;;;;;;;95.22;38.97;;;;;;;;;;4922346;29;20090;-87
2020/12/07 04:58:42;;;;;;;;;;;;;;;;;;;;;
2020/12/07 05:12:14;;;;;;;;;;;;;;;;;;;;;
2020/12/07 05:15:33;;;;;;;88.90;37.15;;;;;;;;;;5020697;28;20055;-88
2020/12/07 05:19:03;;;;;;;90.05;35.65;;;;;;;;;;4966021;28;20043;-88
2020/12/07 05:21:55;;;;;;;94.53;38.45;;;;;;;;;;4971455;28;20069;-88
2020/12/07 05:24:30;;;;;;;98.32;38.45;;;;;;;;;;4979730;28;20122;-88
2020/12/07 05:27:24;;;;;;;;;;;;;;;;;;;;;
2020/12/07 05:30:26;;;;;;;105.55;38.30;;;;;;;;;;4981376;28;20047;-88
2020/12/07 05:33:03;;;;;;;109.57;39.78;;;;;;;;;;4978990;28;20154;-89
2020/12/07 05:35:53;;;;;;;101.18;37.90;;;;;;;;;;5022451;28;20098;-88
2020/12/07 05:38:43;;;;;;;103.88;41.88;;;;;;;;;;5073513;28;20170;-88
2020/12/07 05:41:24;;;;;;;98.32;40.25;;;;;;;;;;5077267;28;20044;-89
2020/12/07 05:43:53;;;;;;;97.95;38.15;;;;;;;;;;5072061;28;20120;-89
2020/12/07 05:46:25;;;;;;;103.80;41.03;;;;;;;;;;5070175;28;20060;-89
2020/12/07 05:48:52;;;;;;;91.35;37.90;;;;;;;;;;5070273;28;20151;-88
2020/12/07 05:51:26;;;;;;;97.97;38.63;;;;;;;;;;5080731;28;20067;-88
2020/12/07 05:53:54;;;;;;;104.28;40.28;;;;;;;;;;5087776;28;20037;-88
2020/12/07 05:56:28;;;;;;;106.07;41.25;;;;;;;;;;5089511;28;20209;-88
2020/12/07 05:59:02;;;;;;;96.05;39.10;;;;;;;;;;5079965;28;20307;-89
2020/12/07 06:01:36;;;;;;;95.35;37.55;;;;;;;;;;5075730;28;20370;-89
2020/12/07 06:04:05;;;;;;;89.85;37.00;;;;;;;;;;5095226;28;20047;-89
2020/12/07 06:06:34;;;;;;;101.70;38.60;;;;;;;;;;5083051;28;20045;-89
2020/12/07 06:09:20;;;;;;;94.55;39.35;;;;;;;;;;5108731;28;20104;-88
2020/12/07 06:12:03;;;;;;;92.95;35.20;;;;;;;;;;5076876;28;20045;-88
2020/12/07 06:14:34;;;;;;;81.68;35.30;;;;;;;;;;5087602;28;20637;-87
2020/12/07 06:17:06;;;;;;;90.18;35.95;;;;;;;;;;5073922;28;20457;-88
2020/12/07 06:19:34;;;;;;;86.50;35.75;;;;;;;;;;5098630;28;20165;-88
2020/12/07 06:22:06;;;;;;;92.05;37.58;;;;;;;;;;5069066;28;20059;-88
2020/12/07 06:24:38;;;;;;;97.82;39.92;;;;;;;;;;5069927;28;20051;-88
2020/12/07 06:27:10;;;;;;;86.13;36.65;;;;;;;;;;5077521;28;20407;-88
2020/12/07 06:29:36;;;;;;;90.63;35.75;;;;;;;;;;5085831;28;20049;-88
2020/12/07 06:32:03;;;;;;;100.25;37.78;;;;;;;;;;5091413;28;20109;-87
2020/12/07 06:34:43;;;;;;;87.80;34.55;;;;;;;;;;5084891;28;20056;-89
2020/12/07 06:37:19;;;;;;;92.43;36.85;;;;;;;;;;5072236;28;20044;-89
2020/12/07 06:40:05;;;;;;;94.07;38.38;;;;;;;;;;5086492;28;20309;-88
2020/12/07 06:44:13;;;;;;;;;;;;;;;;;;;;;
2020/12/07 06:47:01;;;;;;;97.82;37.90;;;;;;;;;;5064187;28;20469;-88
2020/12/07 06:56:52;;;;;;;112.05;41.08;;;;;;;;;;4932129;29;20151;-89
2020/12/07 06:59:25;;;;;;;98.85;36.65;;;;;;;;;;4929902;29;20043;-89
2020/12/07 07:01:53;;;;;;;105.72;40.33;;;;;;;;;;4934952;29;20068;-90
2020/12/07 07:04:23;;;;;;;110.72;41.35;;;;;;;;;;4951587;28;20051;-89
2020/12/07 07:06:58;;;;;;;109.68;41.08;;;;;;;;;;4952145;28;20040;-89
2020/12/07 07:09:28;;;;;;;120.85;42.60;;;;;;;;;;4949095;28;20070;-88
2020/12/07 07:11:57;;;;;;;116.57;42.85;;;;;;;;;;4934513;28;20119;-87
2020/12/07 07:14:42;;;;;;;110.88;41.42;;;;;;;;;;4950172;28;20262;-88
2020/12/07 07:17:16;;;;;;;124.70;42.45;;;;;;;;;;4959010;28;20051;-88
2020/12/07 07:20:18;;;;;;;114.30;42.22;;;;;;;;;;4962909;28;20058;-89
2020/12/07 07:22:47;;;;;;;110.68;41.65;;;;;;;;;;5001430;28;20393;-87
2020/12/07 07:28:03;;;;;;;110.63;41.25;;;;;;;;;;5006317;28;20433;-88
2020/12/07 07:30:36;;;;;;;116.40;43.10;;;;;;;;;;5085479;28;20132;-88
2020/12/07 07:33:07;;;;;;;112.13;41.45;;;;;;;;;;5092808;28;20138;-88
2020/12/07 07:39:17;;;;;;;109.07;41.50;;;;;;;;;;5004758;28;20062;-88
2020/12/07 07:42:38;;;;;;;114.72;43.28;;;;;;;;;;5007239;28;20061;-87
2020/12/07 07:46:01;;;;;;;111.20;42.30;;;;;;;;;;4991572;28;20358;-88
2020/12/07 07:48:45;;;;;;;102.88;39.65;;;;;;;;;;4987528;28;20118;-87
2020/12/07 08:24:44;;;;;;;;;;;;;;;;;;;;;
2020/12/07 08:37:50;;;;;;;;;;;;;;;;;;;;;
2020/12/07 08:41:13;;;;;;;;;;;;;;;;;;;;;
2020/12/07 08:46:58;;;;;;;80.00;33.15;;;;;;;;;;5005293;28;20054;-87
2020/12/07 08:49:36;;;;;;;79.82;32.13;;;;;;;;;;4997133;28;20069;-87
2020/12/07 08:52:12;;;;;;;86.20;34.00;;;;;;;;;;4988967;28;20358;-88
2020/12/07 08:54:42;;;;;;;81.28;33.97;;;;;;;;;;5004490;28;20089;-89
2020/12/07 08:57:16;;;;;;;88.53;35.53;;;;;;;;;;5004311;28;20228;-87
2020/12/07 08:59:47;;;;;;;88.30;34.95;;;;;;;;;;5006998;28;20595;-88
2020/12/07 09:02:17;;;;;;;80.63;33.50;;;;;;;;;;5012891;28;20142;-88
2020/12/07 09:04:45;;;;;;;70.70;32.03;;;;;;;;;;5042043;28;20048;-88
2020/12/07 09:07:13;;;;;;;72.35;31.55;;;;;;;;;;5082645;28;20488;-89
2020/12/07 09:09:43;;;;;;;56.63;26.27;;;;;;;;;;5074277;28;20056;-89
2020/12/07 09:12:10;;;;;;;50.78;22.92;;;;;;;;;;5102040;28;20032;-89
2020/12/07 09:14:38;;;;;;;25.27;12.63;;;;;;;;;;5110702;28;20040;-88
2020/12/07 09:17:08;;;;;;;19.73;10.02;;;;;;;;;;5087251;28;20048;-87
2020/12/07 09:19:40;;;;;;;23.67;10.70;;;;;;;;;;5074882;28;20067;-86
2020/12/07 09:22:07;;;;;;;14.52;7.38;;;;;;;;;;5058309;28;20040;-86
2020/12/07 09:24:38;;;;;;;11.30;6.22;;;;;;;;;;5057450;28;20049;-85
2020/12/07 09:27:07;;;;;;;15.32;6.90;;;;;;;;;;5088788;28;20063;-85
2020/12/07 09:29:35;;;;;;;11.48;6.65;;;;;;;;;;5076383;28;20243;-84
2020/12/07 09:32:02;;;;;;;12.18;7.07;;;;;;;;;;5080503;28;20068;-82
2020/12/07 09:34:42;;;;;;;12.77;6.13;;;;;;;;;;5059695;28;20465;-83
2020/12/07 09:37:15;;;;;;;10.43;6.60;;;;;;;;;;5074765;28;20497;-82
2020/12/07 09:39:48;;;;;;;8.93;6.03;;;;;;;;;;5096131;28;20190;-83
2020/12/07 09:42:20;;;;;;;10.32;6.18;;;;;;;;;;5106223;28;20254;-82
2020/12/07 09:44:50;;;;;;;13.05;6.65;;;;;;;;;;5094323;28;20047;-82
2020/12/07 09:47:16;;;;;;;10.98;6.82;;;;;;;;;;5075762;28;20044;-83
2020/12/07 09:49:45;;;;;;;11.25;6.57;;;;;;;;;;5061813;28;20048;-83
2020/12/07 09:52:11;;;;;;;11.10;6.88;;;;;;;;;;5071620;28;20227;-82
2020/12/07 09:54:39;;;;;;;8.73;6.25;;;;;;;;;;5078185;28;20218;-83
2020/12/07 09:57:09;;;;;;;9.80;6.18;;;;;;;;;;5082489;28;20147;-82
2020/12/07 09:59:37;;;;;;;9.25;6.90;;;;;;;;;;5069330;28;20044;-83
2020/12/07 10:02:09;;;;;;;8.02;6.05;;;;;;;;;;5072964;28;20072;-83
2020/12/07 10:04:56;;;;;;;8.75;6.65;;;;;;;;;;5068026;28;20032;-88
2020/12/07 10:07:37;;;;;;;10.57;7.50;;;;;;;;;;5089463;28;20044;-85
2020/12/07 10:10:26;;;;;;;15.80;8.10;;;;;;;;;;5080657;28;20102;-86
2020/12/07 10:13:25;;;;;;;13.18;8.00;;;;;;;;;;5093837;28;20058;-85
2020/12/07 10:15:53;;;;;;;13.85;8.43;;;;;;;;;;5078460;28;20440;-86
2020/12/07 10:18:54;;;;;;;18.75;10.05;;;;;;;;;;5095958;28;20044;-86
2020/12/07 10:21:44;;;;;;;12.65;8.77;;;;;;;;;;5079640;28;20063;-87
2020/12/07 10:24:15;;;;;;;17.00;9.60;;;;;;;;;;5075220;28;20048;-86
2020/12/07 10:26:48;;;;;;;13.38;8.30;;;;;;;;;;5066398;28;20048;-86
2020/12/07 10:29:21;;;;;;;15.85;9.63;;;;;;;;;;5076170;28;20052;-87
2020/12/07 10:31:56;;;;;;;13.18;8.75;;;;;;;;;;5058933;28;20052;-86
2020/12/07 10:34:27;;;;;;;14.75;9.38;;;;;;;;;;5065320;28;20136;-86
2020/12/07 10:37:07;;;;;;;13.52;9.57;;;;;;;;;;5057310;28;20040;-86
2020/12/07 10:39:36;;;;;;;14.88;9.48;;;;;;;;;;5073655;28;20052;-87
2020/12/07 10:42:08;;;;;;;17.50;9.55;;;;;;;;;;5073841;28;20201;-86
2020/12/07 10:44:37;;;;;;;17.83;11.82;;;;;;;;;;5074441;28;20501;-86
2020/12/07 10:47:08;;;;;;;20.33;11.77;;;;;;;;;;5092503;28;20056;-87
2020/12/07 10:49:35;;;;;;;18.80;11.02;;;;;;;;;;5077261;28;20052;-88
2020/12/07 10:52:01;;;;;;;18.48;12.20;;;;;;;;;;5091483;28;20040;-87
2020/12/07 10:54:29;;;;;;;18.27;11.25;;;;;;;;;;5079911;28;20048;-87
2020/12/07 10:56:56;;;;;;;22.10;12.52;;;;;;;;;;5077013;28;20133;-87
2020/12/07 10:59:24;;;;;;;21.48;13.30;;;;;;;;;;5089033;28;20246;-87
2020/12/07 11:01:53;;;;;;;23.85;14.13;;;;;;;;;;5090181;28;20068;-88
2020/12/07 11:04:19;;;;;;;19.10;11.90;;;;;;;;;;5077238;28;20108;-86
2020/12/07 11:06:50;;;;;;;27.27;14.13;;;;;;;;;;5082331;28;20052;-86
2020/12/07 11:09:24;;;;;;;22.05;13.43;;;;;;;;;;5066949;28;20083;-86
2020/12/07 11:12:11;;;;;;;24.42;14.02;;;;;;;;;;5067638;28;20300;-85
2020/12/07 11:14:46;;;;;;;22.63;13.70;;;;;;;;;;5084868;28;20257;-85
2020/12/07 11:17:28;;;;;;;25.00;14.65;;;;;;;;;;5053655;28;20053;-85
2020/12/07 11:19:57;;;;;;;26.58;14.95;;;;;;;;;;5052737;28;20053;-85
2020/12/07 11:22:35;;;;;;;27.33;15.77;;;;;;;;;;5054298;28;20181;-84
2020/12/07 11:25:06;;;;;;;25.35;15.45;;;;;;;;;;5063448;28;20053;-84
2020/12/07 11:27:59;;;;;;;29.60;16.33;;;;;;;;;;5071908;28;20134;-84
2020/12/07 11:30:30;;;;;;;25.55;15.23;;;;;;;;;;5064248;28;20155;-83
2020/12/07 11:36:13;;;;;;;32.45;16.48;;;;;;;;;;5053477;28;20053;-83
2020/12/07 11:38:49;;;;;;;32.90;17.90;;;;;;;;;;5052366;28;20045;-84
2020/12/07 11:44:22;;;;;;;29.88;19.77;;;;;;;;;;5072307;28;20048;-83
2020/12/07 11:47:04;;;;;;;37.00;20.00;;;;;;;;;;5066648;28;20379;-83
2020/12/07 11:49:35;;;;;;;38.63;21.10;;;;;;;;;;5054934;28;20327;-83
2020/12/07 11:52:04;;;;;;;38.45;20.92;;;;;;;;;;5050281;28;20112;-83
2020/12/07 11:54:30;;;;;;;42.10;21.88;;;;;;;;;;5049691;28;20040;-83
2020/12/07 11:57:07;;;;;;;46.40;23.92;;;;;;;;;;5083609;28;20052;-83
2020/12/07 11:59:40;;;;;;;45.55;23.45;;;;;;;;;;5093046;28;20053;-83
2020/12/07 12:02:08;;;;;;;45.85;24.75;;;;;;;;;;5091297;28;20537;-83
2020/12/07 12:04:36;;;;;;;48.63;25.15;;;;;;;;;;5089184;28;20119;-83
2020/12/07 12:07:25;;;;;;;47.65;23.77;;;;;;;;;;5057924;28;20046;-83
2020/12/07 12:10:13;;;;;;;55.97;27.05;;;;;;;;;;5065623;28;20048;-85
2020/12/07 12:13:21;;;;;;;50.42;25.77;;;;;;;;;;5102433;28;20084;-84
2020/12/07 12:16:26;;;;;;;50.00;25.63;;;;;;;;;;5102678;28;20387;-84
2020/12/07 12:19:26;;;;;;;53.67;27.38;;;;;;;;;;5070530;28;20109;-84
2020/12/07 12:22:04;;;;;;;55.50;28.48;;;;;;;;;;5077991;28;20048;-83
2020/12/07 12:24:47;;;;;;;58.78;29.15;;;;;;;;;;5104203;28;20354;-84
2020/12/07 12:27:32;;;;;;;52.67;28.10;;;;;;;;;;5067289;28;20219;-84
2020/12/07 12:30:23;;;;;;;63.03;31.33;;;;;;;;;;5093511;28;20055;-83
2020/12/07 12:33:21;;;;;;;;;;;;;;;;;;;;;
2020/12/07 12:36:11;;;;;;;57.63;29.13;;;;;;;;;;5067808;28;20086;-83
2020/12/07 12:38:53;;;;;;;62.20;30.05;;;;;;;;;;5052275;28;20461;-83
2020/12/07 12:41:28;;;;;;;63.47;31.85;;;;;;;;;;5050966;28;20045;-83
2020/12/07 12:44:00;;;;;;;59.95;30.05;;;;;;;;;;5051362;28;20109;-83
2020/12/07 12:46:32;;;;;;;61.88;31.45;;;;;;;;;;5070706;28;20048;-83
2020/12/07 12:49:00;;;;;;;63.40;32.53;;;;;;;;;;5052708;28;20045;-83
2020/12/07 12:51:31;;;;;;;64.93;30.75;;;;;;;;;;5050889;28;20059;-83
2020/12/07 12:54:00;;;;;;;67.45;32.17;;;;;;;;;;5070270;28;20048;-81
2020/12/07 12:56:30;;;;;;;62.90;31.27;;;;;;;;;;5061305;28;20095;-81
2020/12/07 12:59:03;;;;;;;62.70;32.33;;;;;;;;;;5086568;28;20052;-81
2020/12/07 13:01:58;;;;;;;59.97;30.98;;;;;;;;;;5100028;28;20063;-81
2020/12/07 13:04:30;;;;;;;70.80;37.03;;;;;;;;;;5098063;28;20432;-81
2020/12/07 13:06:59;;;;;;;61.92;31.38;;;;;;;;;;5080990;28;20454;-82
2020/12/07 13:09:29;;;;;;;65.50;32.95;;;;;;;;;;5093923;28;20096;-82
2020/12/07 13:11:59;;;;;;;64.05;36.25;;;;;;;;;;5066874;28;20052;-81
2020/12/07 13:14:27;;;;;;;56.40;31.55;;;;;;;;;;5087077;28;20129;-82
2020/12/07 13:19:32;;;;;;;50.45;27.42;;;;;;;;;;5089399;28;20055;-81
2020/12/07 13:22:23;;;;;;;51.50;28.48;;;;;;;;;;5059953;28;20044;-82
2020/12/07 13:30:06;;;;;;;56.03;31.85;;;;;;;;;;5093137;28;20056;-81
2020/12/07 13:32:37;;;;;;;46.40;27.73;;;;;;;;;;5078972;28;20072;-82
2020/12/07 13:35:09;;;;;;;43.50;26.35;;;;;;;;;;5094493;28;20048;-82
2020/12/07 13:37:36;;;;;;;46.80;27.35;;;;;;;;;;5084732;28;20335;-82
2020/12/07 13:40:03;;;;;;;48.78;27.55;;;;;;;;;;5073995;28;20049;-82
2020/12/07 13:42:34;;;;;;;45.42;28.00;;;;;;;;;;5091222;28;20070;-82
2020/12/07 13:45:04;;;;;;;48.60;29.20;;;;;;;;;;5078282;28;20476;-82
2020/12/07 13:47:30;;;;;;;38.45;24.17;;;;;;;;;;5095044;28;20697;-82
2020/12/07 13:49:58;;;;;;;40.03;23.73;;;;;;;;;;5069518;28;20049;-80
2020/12/07 13:52:24;;;;;;;41.03;25.08;;;;;;;;;;5056550;28;20055;-81
2020/12/07 13:54:54;;;;;;;38.38;23.75;;;;;;;;;;5073579;28;20524;-81
2020/12/07 13:57:22;;;;;;;40.45;24.13;;;;;;;;;;5072647;28;20063;-81
2020/12/07 13:59:53;;;;;;;32.53;21.33;;;;;;;;;;5072279;28;20044;-81
2020/12/07 14:02:22;;;;;;;57.53;38.53;;;;;;;;;;5073559;28;20595;-83
2020/12/07 14:04:59;;;;;;;34.15;23.58;;;;;;;;;;5073103;28;20395;-82
2020/12/07 14:07:36;;;;;;;26.80;16.38;;;;;;;;;;5075707;28;20112;-81
2020/12/07 14:10:14;;;;;;;27.73;18.90;;;;;;;;;;5072301;28;20055;-81
2020/12/07 14:12:44;;;;;;;27.13;19.42;;;;;;;;;;5075767;28;20052;-81
2020/12/07 14:15:14;;;;;;;26.33;17.23;;;;;;;;;;5066723;28;20063;-82
2020/12/07 14:18:04;;;;;;;27.38;19.02;;;;;;;;;;5055178;28;20140;-82
2020/12/07 14:23:19;;;;;;;21.92;15.77;;;;;;;;;;5053844;28;20045;-83
2020/12/07 14:29:22;;;;;;;25.88;17.48;;;;;;;;;;5054583;28;20080;-82
2020/12/07 14:31:55;;;;;;;22.65;17.42;;;;;;;;;;5055699;28;20049;-84
2020/12/07 14:40:14;;;;;;;20.35;15.55;;;;;;;;;;5073988;28;20421;-84
2020/12/07 14:42:47;;;;;;;21.45;15.80;;;;;;;;;;5071183;28;20040;-84
2020/12/07 14:45:26;;;;;;;20.17;15.27;;;;;;;;;;5067254;28;20396;-84
2020/12/07 14:48:15;;;;;;;37.17;28.08;;;;;;;;;;5054176;28;20048;-84
2020/12/07 14:51:14;;;;;;;34.55;26.77;;;;;;;;;;5068545;28;20064;-84
2020/12/07 14:53:33;;;;;;;23.20;17.17;;;;;;;;;;5071993;28;20060;-84
2020/12/07 14:56:26;;;;;;;24.00;17.33;;;;;;;;;;5055193;28;20171;-84
2020/12/07 15:15:46;;;;;;;23.13;16.92;;;;;;;;;;5074394;28;20155;-83
2020/12/07 15:18:15;;;;;;;25.95;15.73;;;;;;;;;;5056460;28;20112;-84
2020/12/07 15:20:45;;;;;;;20.67;15.23;;;;;;;;;;5059224;28;20055;-84
2020/12/07 15:23:25;;;;;;;23.00;16.70;;;;;;;;;;5088369;28;20101;-83
2020/12/07 15:25:51;;;;;;;27.20;20.38;;;;;;;;;;5071627;28;20064;-83
2020/12/07 15:28:21;;;;;;;26.80;17.77;;;;;;;;;;5071296;28;20058;-84
2020/12/07 15:30:52;;;;;;;24.48;18.08;;;;;;;;;;5079766;28;20568;-83
2020/12/07 15:33:21;;;;;;;25.55;19.08;;;;;;;;;;5092225;28;20048;-84
2020/12/07 15:35:48;;;;;;;26.67;19.52;;;;;;;;;;5088708;28;20142;-84
2020/12/07 15:38:17;;;;;;;24.88;18.05;;;;;;;;;;5093715;28;20052;-84
2020/12/07 15:40:46;;;;;;;23.30;18.58;;;;;;;;;;5073965;28;20040;-84
2020/12/07 15:43:12;;;;;;;24.98;19.27;;;;;;;;;;5090596;28;20044;-84
2020/12/07 15:45:43;;;;;;;24.77;19.05;;;;;;;;;;5076215;28;20059;-84
2020/12/07 15:48:16;;;;;;;26.45;19.42;;;;;;;;;;5072050;28;20076;-84
2020/12/07 15:50:49;;;;;;;27.08;19.17;;;;;;;;;;5067873;28;20078;-84
2020/12/07 15:53:16;;;;;;;30.48;23.83;;;;;;;;;;5058502;28;20075;-84
2020/12/07 15:55:48;;;;;;;33.85;24.83;;;;;;;;;;5096353;28;20039;-84
2020/12/07 15:58:17;;;;;;;27.10;21.42;;;;;;;;;;5097451;28;20064;-84
2020/12/07 16:00:44;;;;;;;30.95;24.42;;;;;;;;;;5070208;28;20048;-84
2020/12/07 16:03:13;;;;;;;28.60;20.48;;;;;;;;;;5058811;28;20044;-84
2020/12/07 16:05:43;;;;;;;34.67;21.73;;;;;;;;;;5085507;28;20161;-84
2020/12/07 16:08:12;;;;;;;30.33;21.90;;;;;;;;;;5089918;28;20055;-84
2020/12/07 16:10:41;;;;;;;28.75;22.05;;;;;;;;;;5074447;28;20203;-84
2020/12/07 16:13:16;;;;;;;36.25;22.58;;;;;;;;;;5085762;28;20072;-84
2020/12/07 16:15:43;;;;;;;31.05;23.38;;;;;;;;;;5081233;28;20734;-84
2020/12/07 16:18:09;;;;;;;31.85;22.95;;;;;;;;;;5088849;28;20195;-84
2020/12/07 16:20:42;;;;;;;29.77;21.23;;;;;;;;;;5091861;28;20052;-84
2020/12/07 16:23:12;;;;;;;34.05;23.42;;;;;;;;;;5073310;28;20302;-84
2020/12/07 16:25:58;;;;;;;30.52;22.02;;;;;;;;;;5057930;28;20063;-83
2020/12/07 16:28:24;;;;;;;33.53;23.90;;;;;;;;;;5069035;28;20047;-82
2020/12/07 16:30:51;;;;;;;30.90;22.88;;;;;;;;;;5086699;28;20046;-84
2020/12/07 16:33:27;;;;;;;34.05;23.40;;;;;;;;;;5074587;28;20135;-84
2020/12/07 16:36:03;;;;;;;32.65;23.23;;;;;;;;;;5071438;28;20051;-84
2020/12/07 16:38:28;;;;;;;31.20;22.45;;;;;;;;;;5092927;28;20036;-85
2020/12/07 16:40:58;;;;;;;36.15;22.63;;;;;;;;;;5088364;28;20048;-83
2020/12/07 16:43:29;;;;;;;33.45;23.17;;;;;;;;;;5076695;28;20274;-82
2020/12/07 16:45:54;;;;;;;33.20;22.85;;;;;;;;;;5064401;28;20269;-83
2020/12/07 16:48:23;;;;;;;30.88;21.63;;;;;;;;;;5057459;28;20156;-82
2020/12/07 16:50:55;;;;;;;33.83;23.67;;;;;;;;;;5057285;28;20044;-83
2020/12/07 16:53:24;;;;;;;35.40;24.35;;;;;;;;;;5096487;28;20137;-83
2020/12/07 16:55:51;;;;;;;34.47;24.15;;;;;;;;;;5061617;28;20055;-84
2020/12/07 16:58:20;;;;;;;33.70;22.98;;;;;;;;;;5078898;28;20052;-83
2020/12/07 17:00:51;;;;;;;36.70;24.42;;;;;;;;;;5078303;28;20061;-83
2020/12/07 17:03:27;;;;;;;34.88;25.20;;;;;;;;;;5078758;28;20047;-82
2020/12/07 17:05:53;;;;;;;33.53;24.27;;;;;;;;;;5097034;28;20319;-82
2020/12/07 17:08:22;;;;;;;33.22;24.70;;;;;;;;;;5080412;28;20049;-83
2020/12/07 17:10:51;;;;;;;32.97;23.92;;;;;;;;;;5062968;28;20348;-83
2020/12/07 17:13:19;;;;;;;41.25;28.38;;;;;;;;;;5059104;28;20080;-83
2020/12/07 17:15:50;;;;;;;32.55;23.30;;;;;;;;;;5093539;28;20051;-83
2020/12/07 17:18:23;;;;;;;32.85;23.50;;;;;;;;;;5075872;28;20051;-83
2020/12/07 17:20:51;;;;;;;34.80;24.00;;;;;;;;;;5092138;28;20227;-84
2020/12/07 17:23:42;;;;;;;40.08;24.92;;;;;;;;;;5069152;28;20215;-84
2020/12/07 17:26:17;;;;;;;35.20;23.48;;;;;;;;;;5089826;28;20133;-84
2020/12/07 17:28:53;;;;;;;36.88;26.15;;;;;;;;;;5067958;28;20059;-84